Time;durP1;ratioP1;P1;durP2;ratioP2;P2;SDS_P1;SDS_P2;PMS_P1;PMS_P2;Temp;Humidity;BMP_temperature;BMP_pressure;BME280_temperature;BME280_humidity;BME280_pressure;Samples;Min_cycle;Max_cycle;Signal;HPM_P1;HPM_P2
2021/04/07 00:00:30;;;;;;;18.55;10.38;;;;;;;11.23;46.80;99206.44;1782970;80;21185;-79
2021/04/07 00:02:58;;;;;;;30.17;13.95;;;;;;;11.16;46.95;99211.73;1767727;80;21138;-78
2021/04/07 00:05:30;;;;;;;30.92;13.22;;;;;;;11.09;47.13;99210.85;1772832;80;21132;-78
2021/04/07 00:07:58;;;;;;;67.50;22.07;;;;;;;11.04;47.38;99203.91;1771662;80;21184;-79
2021/04/07 00:10:36;;;;;;;37.42;14.35;;;;;;;11.00;47.52;99203.14;1802617;79;21104;-79
2021/04/07 00:13:06;;;;;;;77.82;26.20;;;;;;;11.01;47.58;99202.11;1804708;79;21137;-78
2021/04/07 00:15:34;;;;;;;91.12;30.72;;;;;;;11.00;47.69;99201.28;1793739;80;21145;-78
2021/04/07 00:18:03;;;;;;;72.90;29.23;;;;;;;10.98;47.87;99201.97;1798466;79;21233;-80
2021/04/07 00:20:32;;;;;;;89.80;36.30;;;;;;;10.99;48.06;99203.66;1773738;80;21567;-78
2021/04/07 00:23:00;;;;;;;64.75;29.37;;;;;;;10.98;48.14;99198.47;1757493;80;21161;-79
2021/04/07 00:25:28;;;;;;;54.15;24.45;;;;;;;10.96;48.23;99191.14;1784931;80;21097;-79
2021/04/07 00:27:58;;;;;;;47.85;25.35;;;;;;;10.95;48.33;99192.17;1787661;78;21164;-79
2021/04/07 00:30:30;;;;;;;31.40;17.25;;;;;;;10.93;48.38;99191.00;1781135;79;21529;-80
2021/04/07 00:33:00;;;;;;;25.20;12.70;;;;;;;10.91;48.49;99186.36;1779821;79;21692;-78
2021/04/07 00:35:28;;;;;;;25.52;13.18;;;;;;;10.86;48.72;99192.81;1794791;79;21085;-78
2021/04/07 00:37:56;;;;;;;26.60;13.15;;;;;;;10.82;48.84;99190.19;1796798;78;21157;-80
2021/04/07 00:40:23;;;;;;;22.87;12.28;;;;;;;10.77;49.12;99184.06;1792459;79;21140;-78
2021/04/07 00:42:52;;;;;;;21.05;11.33;;;;;;;10.80;49.18;99180.16;1758659;81;21130;-78
2021/04/07 00:45:20;;;;;;;24.18;10.98;;;;;;;10.86;49.08;99182.09;1759525;81;21164;-78
2021/04/07 00:47:50;;;;;;;22.50;11.15;;;;;;;10.94;48.92;99184.62;1787311;79;21508;-78
2021/04/07 00:50:19;;;;;;;17.10;10.13;;;;;;;10.98;48.75;99187.75;1781800;80;21185;-79
2021/04/07 00:52:47;;;;;;;22.05;11.40;;;;;;;10.97;48.76;99187.44;1783109;80;21121;-80
2021/04/07 00:55:18;;;;;;;21.33;10.45;;;;;;;11.00;48.72;99190.57;1783075;80;21097;-80
2021/04/07 00:57:45;;;;;;;22.22;11.53;;;;;;;11.06;48.58;99192.47;1788902;79;21180;-77
2021/04/07 01:00:14;;;;;;;21.07;11.40;;;;;;;11.09;48.52;99181.89;1796092;79;21173;-78
2021/04/07 01:02:42;;;;;;;22.95;10.85;;;;;;;11.18;48.32;99186.09;1800297;78;21192;-78
2021/04/07 01:05:11;;;;;;;24.00;11.40;;;;;;;11.30;47.98;99185.04;1791808;80;21193;-77
2021/04/07 01:07:39;;;;;;;26.95;12.70;;;;;;;11.36;47.69;99186.97;1771567;79;21192;-78
2021/04/07 01:10:10;;;;;;;43.35;16.52;;;;;;;11.36;47.56;99181.60;1793261;80;21122;-77
2021/04/07 01:12:38;;;;;;;52.20;18.35;;;;;;;11.38;47.46;99172.84;1802541;79;21101;-77
2021/04/07 01:15:08;;;;;;;47.60;17.98;;;;;;;11.40;47.31;99171.63;1793997;80;21073;-80
2021/04/07 01:17:37;;;;;;;51.88;16.87;;;;;;;11.31;47.25;99169.27;1801732;79;21105;-79
2021/04/07 01:20:07;;;;;;;42.83;16.95;;;;;;;11.22;47.43;99165.07;1793496;80;21133;-79
2021/04/07 01:22:36;;;;;;;36.03;15.30;;;;;;;11.14;47.59;99160.70;1801606;79;21106;-79
2021/04/07 01:25:07;;;;;;;26.27;12.40;;;;;;;11.12;47.63;99166.23;1793750;80;21140;-80
2021/04/07 01:27:37;;;;;;;22.15;9.98;;;;;;;11.10;47.83;99158.08;1801089;79;21180;-78
2021/04/07 01:30:14;;;;;;;26.00;10.38;;;;;;;11.07;48.03;99160.63;1793646;80;21117;-79
2021/04/07 01:32:42;;;;;;;17.92;9.23;;;;;;;11.09;48.21;99159.11;1801758;78;21053;-81
2021/04/07 01:35:12;;;;;;;16.37;9.18;;;;;;;11.17;48.33;99159.81;1793707;80;21074;-77
2021/04/07 01:37:40;;;;;;;20.40;9.33;;;;;;;11.27;48.33;99157.30;1801640;79;21081;-79
2021/04/07 01:40:13;;;;;;;26.85;10.80;;;;;;;11.29;48.34;99156.58;1791923;80;21105;-79
2021/04/07 01:42:45;;;;;;;20.15;11.05;;;;;;;11.29;48.42;99153.91;1795523;80;21089;-80
2021/04/07 01:45:13;;;;;;;21.45;10.28;;;;;;;11.29;48.47;99152.56;1796326;80;21140;-78
2021/04/07 01:47:43;;;;;;;17.67;10.78;;;;;;;11.34;48.55;99152.28;1796212;80;21073;-77
2021/04/07 01:50:11;;;;;;;20.20;10.70;;;;;;;11.32;48.82;99145.48;1795960;80;21098;-80
2021/04/07 01:52:39;;;;;;;17.40;9.00;;;;;;;11.34;48.88;99139.40;1796163;80;21113;-78
2021/04/07 01:55:08;;;;;;;15.83;8.88;;;;;;;11.31;49.10;99138.44;1796175;80;21500;-77
2021/04/07 01:57:36;;;;;;;14.15;7.72;;;;;;;11.28;49.38;99132.97;1796161;80;21169;-79
2021/04/07 02:00:10;;;;;;;15.43;8.63;;;;;;;11.33;49.65;99127.02;1794108;78;21137;-79
2021/04/07 02:02:39;;;;;;;18.82;10.28;;;;;;;11.43;49.69;99132.86;1780380;79;21174;-76
2021/04/07 02:05:08;;;;;;;14.93;9.85;;;;;;;11.46;49.71;99127.12;1803246;78;21164;-80
2021/04/07 02:07:36;;;;;;;16.67;9.80;;;;;;;11.47;49.70;99122.58;1793376;78;21169;-78
2021/04/07 02:10:06;;;;;;;11.75;8.03;;;;;;;11.45;49.77;99116.08;1784073;78;21148;-78
2021/04/07 02:12:34;;;;;;;17.55;9.30;;;;;;;11.45;49.84;99110.72;1780397;80;21585;-78
2021/04/07 02:15:13;;;;;;;27.67;10.35;;;;;;;11.41;49.88;99108.94;1790809;79;21163;-77
2021/04/07 02:17:41;;;;;;;14.13;8.75;;;;;;;11.45;49.96;99096.48;1795070;80;21052;-76
2021/04/07 02:20:10;;;;;;;19.65;10.13;;;;;;;11.52;49.89;99096.83;1775101;80;21074;-78
2021/04/07 02:22:38;;;;;;;19.73;9.90;;;;;;;11.52;50.00;99088.78;1795572;80;21041;-78
2021/04/07 02:25:07;;;;;;;19.87;11.50;;;;;;;11.57;50.00;99089.53;1795540;80;21571;-78
2021/04/07 02:27:35;;;;;;;22.02;10.35;;;;;;;11.59;49.97;99089.66;1795473;79;21140;-78
2021/04/07 02:30:06;;;;;;;24.40;10.65;;;;;;;11.59;49.98;99078.11;1766701;79;21170;-77
2021/04/07 02:32:34;;;;;;;25.95;11.12;;;;;;;11.58;49.97;99074.59;1773138;79;21118;-79
2021/04/07 02:35:02;;;;;;;16.73;9.58;;;;;;;11.56;49.97;99065.91;1799980;79;21421;-77
2021/04/07 02:37:30;;;;;;;18.48;9.05;;;;;;;11.55;50.06;99050.85;1798703;78;21114;-77
2021/04/07 02:40:00;;;;;;;12.25;8.70;;;;;;;11.53;50.11;99054.23;1798567;79;21172;-77
2021/04/07 02:42:28;;;;;;;22.13;11.18;;;;;;;11.49;50.25;99052.14;1763222;80;21175;-78
2021/04/07 02:44:57;;;;;;;19.23;12.78;;;;;;;11.40;50.22;99050.98;1763231;80;21150;-78
2021/04/07 02:47:25;;;;;;;26.17;16.10;;;;;;;11.40;50.28;99048.31;1780320;80;21142;-78
2021/04/07 02:49:53;;;;;;;26.60;15.43;;;;;;;11.43;50.27;99049.75;1795705;79;21148;-77
2021/04/07 02:52:21;;;;;;;22.32;13.20;;;;;;;11.45;50.17;99043.69;1785788;80;21070;-77
2021/04/07 02:54:49;;;;;;;23.10;14.87;;;;;;;11.47;50.08;99041.63;1773621;80;21565;-78
2021/04/07 02:57:16;;;;;;;41.95;19.05;;;;;;;11.45;50.07;99038.33;1780354;80;21161;-78
2021/04/07 02:59:44;;;;;;;54.98;25.23;;;;;;;11.42;50.20;99035.52;1766716;81;21191;-80
2021/04/07 03:02:13;;;;;;;57.50;25.05;;;;;;;11.41;50.37;99031.70;1790231;79;21180;-80
2021/04/07 03:04:41;;;;;;;41.35;22.32;;;;;;;11.43;50.38;99032.31;1788776;80;21524;-80
2021/04/07 03:07:09;;;;;;;42.40;22.13;;;;;;;11.49;50.33;99024.84;1784610;80;21121;-79
2021/04/07 03:09:37;;;;;;;39.33;17.57;;;;;;;11.54;50.28;99014.34;1795933;76;21128;-77
2021/04/07 03:12:06;;;;;;;33.45;19.37;;;;;;;11.60;50.12;99014.05;1798877;78;21145;-79
2021/04/07 03:14:34;;;;;;;26.57;16.95;;;;;;;11.61;49.97;99008.48;1786411;78;21110;-79
2021/04/07 03:17:04;;;;;;;29.42;15.10;;;;;;;11.60;50.00;99001.47;1796525;78;21183;-78
2021/04/07 03:19:32;;;;;;;243.12;23.75;;;;;;;11.59;50.02;99001.67;1770033;79;21600;-78
2021/04/07 03:22:00;;;;;;;24.82;12.65;;;;;;;11.53;50.03;99001.94;1758141;79;21723;-79
2021/04/07 03:24:28;;;;;;;18.95;13.00;;;;;;;11.50;50.11;99006.38;1768346;79;21466;-78
2021/04/07 03:26:58;;;;;;;28.10;18.90;;;;;;;11.47;50.18;99016.16;1812717;78;21162;-78
2021/04/07 03:29:25;;;;;;;33.30;21.65;;;;;;;11.39;50.19;99031.88;1804287;79;21188;-77
2021/04/07 03:31:53;;;;;;;35.33;22.52;;;;;;;11.31;50.28;99036.58;1778562;79;21233;-78
2021/04/07 03:34:21;;;;;;;31.80;17.82;;;;;;;11.24;50.29;99050.47;1782955;78;21145;-77
2021/04/07 03:36:48;;;;;;;25.48;14.98;;;;;;;11.15;50.54;99063.19;1797167;79;21205;-79
2021/04/07 03:39:18;;;;;;;20.92;13.50;;;;;;;11.22;50.49;99065.91;1812381;79;21643;-78
2021/04/07 03:41:46;;;;;;;20.10;11.48;;;;;;;11.34;50.18;99065.67;1801112;78;21193;-80
2021/04/07 03:44:14;;;;;;;20.20;9.90;;;;;;;11.39;49.93;99061.38;1800516;79;21682;-78
2021/04/07 03:46:42;;;;;;;21.23;11.18;;;;;;;11.30;50.03;99063.90;1826548;78;21044;-79
2021/04/07 03:49:09;;;;;;;15.38;10.90;;;;;;;11.21;50.47;99058.89;1817332;78;21075;-78
2021/04/07 03:51:47;;;;;;;16.95;10.45;;;;;;;11.11;50.82;99051.20;1776439;79;21156;-82
2021/04/07 03:54:14;;;;;;;;;;;;;;;10.98;51.33;99047.09;1733177;81;21227;-78
2021/04/07 03:56:42;;;;;;;18.10;11.33;;;;;;;10.88;51.66;99051.45;1735612;82;20689;-79
2021/04/07 03:59:10;;;;;;;33.50;15.20;;;;;;;10.94;51.79;99052.00;1716641;82;21210;-79
2021/04/07 04:01:38;;;;;;;37.55;15.13;;;;;;;11.06;51.76;99050.45;1758484;79;21381;-77
2021/04/07 04:04:06;;;;;;;41.35;16.52;;;;;;;11.27;51.49;99049.57;1759878;79;21212;-77
2021/04/07 04:06:33;;;;;;;52.43;21.90;;;;;;;11.45;51.29;99050.91;1761227;79;21254;-76
2021/04/07 04:09:01;;;;;;;69.12;26.45;;;;;;;11.51;51.27;99054.95;1759832;79;21248;-77
2021/04/07 04:11:29;;;;;;;73.52;28.85;;;;;;;11.67;50.96;99054.63;1762731;79;21702;-77
2021/04/07 04:13:59;;;;;;;61.58;26.20;;;;;;;11.78;50.74;99057.77;1778040;79;21269;-77
2021/04/07 04:16:28;;;;;;;57.08;24.80;;;;;;;11.90;50.59;99061.56;1771782;79;21252;-76
2021/04/07 04:18:55;;;;;;;52.80;21.27;;;;;;;12.00;50.35;99056.64;1748850;81;21221;-77
2021/04/07 04:21:23;;;;;;;41.70;20.80;;;;;;;12.11;50.12;99065.44;1770362;79;21203;-77
2021/04/07 04:23:50;;;;;;;36.23;20.70;;;;;;;12.20;49.94;99062.05;1796464;79;21225;-78
2021/04/07 04:26:18;;;;;;;41.50;21.93;;;;;;;12.27;49.76;99064.77;1785179;79;21207;-79
2021/04/07 04:28:46;;;;;;;39.13;21.77;;;;;;;12.33;49.58;99058.58;1763045;79;21236;-81
2021/04/07 04:31:13;;;;;;;37.78;21.97;;;;;;;12.38;49.43;99056.92;1761209;79;21243;-79
2021/04/07 04:33:41;;;;;;;44.42;23.30;;;;;;;12.43;49.33;99054.45;1772223;79;21748;-77
2021/04/07 04:36:09;;;;;;;33.20;17.48;;;;;;;12.50;49.24;99047.77;1766956;79;21223;-79
2021/04/07 04:38:36;;;;;;;27.40;16.20;;;;;;;12.57;49.16;99057.16;1841815;76;21242;-77
2021/04/07 04:41:04;;;;;;;25.05;14.83;;;;;;;12.61;49.05;99052.51;1870452;76;21169;-79
2021/04/07 04:43:32;;;;;;;25.55;14.47;;;;;;;12.63;49.03;99050.98;1873537;76;21678;-76
2021/04/07 04:46:00;;;;;;;29.02;16.15;;;;;;;12.64;48.96;99049.42;1860382;76;21186;-77
2021/04/07 04:48:28;;;;;;;38.25;17.32;;;;;;;12.66;48.90;99050.55;1851709;77;21114;-77
2021/04/07 04:50:56;;;;;;;97.50;33.28;;;;;;;12.67;48.85;99054.88;1843278;77;21140;-77
2021/04/07 04:53:23;;;;;;;110.78;36.83;;;;;;;12.64;48.89;99058.83;1812721;77;21560;-78
2021/04/07 04:55:51;;;;;;;74.25;28.65;;;;;;;12.63;48.97;99063.07;1863217;76;21225;-80
2021/04/07 04:58:19;;;;;;;60.38;22.62;;;;;;;12.63;49.06;99058.52;1837287;76;21179;-77
2021/04/07 05:00:47;;;;;;;50.63;21.80;;;;;;;12.65;49.16;99054.27;1844211;76;21200;-78
2021/04/07 05:03:14;;;;;;;47.05;20.52;;;;;;;12.73;49.13;99051.91;1862809;75;21207;-76
2021/04/07 05:05:45;;;;;;;43.98;17.48;;;;;;;12.79;49.03;99048.39;1868879;76;21180;-77
2021/04/07 05:08:13;;;;;;;27.75;13.28;;;;;;;12.88;48.88;99044.45;1837130;76;21269;-77
2021/04/07 05:10:40;;;;;;;110.37;36.68;;;;;;;12.95;48.82;99046.64;1837634;76;21205;-78
2021/04/07 05:13:08;;;;;;;65.50;24.72;;;;;;;12.99;48.93;99043.84;1845700;76;21171;-77
2021/04/07 05:15:38;;;;;;;42.60;19.15;;;;;;;13.06;48.91;99045.17;1846918;76;21203;-75
2021/04/07 05:18:14;;;;;;;130.52;42.55;;;;;;;13.09;48.70;99040.73;1847523;76;21204;-76
2021/04/07 05:20:42;;;;;;;118.17;37.20;;;;;;;13.02;48.76;99038.55;1853207;76;21124;-76
2021/04/07 05:23:10;;;;;;;89.62;30.52;;;;;;;12.98;48.80;99043.52;1847659;76;21528;-76
2021/04/07 05:25:38;;;;;;;123.33;39.35;;;;;;;12.99;49.13;99044.34;1838826;76;21184;-75
2021/04/07 05:28:07;;;;;;;159.40;52.67;;;;;;;13.07;49.15;99044.12;1838187;76;21211;-77
2021/04/07 05:33:38;;;;;;;124.25;38.73;;;;;;;13.18;48.72;99047.53;1846766;76;21127;-76
2021/04/07 05:36:09;;;;;;;66.65;24.72;;;;;;;13.14;48.73;99043.09;1851488;76;21512;-76
2021/04/07 05:38:37;;;;;;;32.08;17.10;;;;;;;13.16;48.71;99045.04;1840267;76;21110;-77
2021/04/07 05:41:06;;;;;;;24.37;14.13;;;;;;;13.21;48.63;99048.44;1848512;76;21488;-77
2021/04/07 05:43:35;;;;;;;39.30;21.00;;;;;;;13.27;48.66;99050.87;1811788;76;21124;-78
2021/04/07 05:46:08;;;;;;;27.25;16.30;;;;;;;13.34;48.69;99046.28;1850404;76;21109;-75
2021/04/07 05:48:38;;;;;;;25.15;14.05;;;;;;;13.42;48.58;99046.88;1844672;76;21133;-76
2021/04/07 05:51:06;;;;;;;21.20;10.90;;;;;;;13.52;48.44;99057.72;1846749;76;21128;-76
2021/04/07 05:53:34;;;;;;;17.05;10.82;;;;;;;13.56;47.96;99059.78;1846473;76;21128;-76
2021/04/07 05:56:04;;;;;;;43.65;22.70;;;;;;;13.57;47.82;99047.97;1848442;76;21114;-76
2021/04/07 05:58:32;;;;;;;41.28;19.23;;;;;;;13.60;47.96;99052.94;1853449;76;21170;-76
2021/04/07 06:00:59;;;;;;;25.97;14.23;;;;;;;13.63;47.91;99053.87;1848033;76;21105;-76
2021/04/07 06:03:27;;;;;;;28.10;14.50;;;;;;;13.56;47.65;99049.53;1834274;77;21120;-75
2021/04/07 06:05:55;;;;;;;26.73;14.90;;;;;;;13.49;47.80;99044.69;1843811;76;21564;-77
2021/04/07 06:08:23;;;;;;;38.40;18.92;;;;;;;13.48;47.92;99049.23;1849011;76;21101;-76
2021/04/07 06:10:51;;;;;;;34.08;19.40;;;;;;;13.51;48.04;99049.35;1847114;76;21081;-75
2021/04/07 06:13:19;;;;;;;34.35;19.15;;;;;;;13.53;48.04;99046.73;1849611;76;21172;-76
2021/04/07 06:15:47;;;;;;;34.63;19.55;;;;;;;13.58;48.02;99048.79;1860604;76;22274;-76
2021/04/07 06:18:16;;;;;;;37.53;21.62;;;;;;;13.61;47.95;99059.96;1842333;76;21665;-78
2021/04/07 06:20:47;;;;;;;55.98;26.77;;;;;;;13.63;47.75;99056.56;1836595;76;21228;-78
2021/04/07 06:23:19;;;;;;;71.35;31.62;;;;;;;13.65;47.74;99058.50;1849865;76;21120;-77
2021/04/07 06:26:14;;;;;;;65.78;31.50;;;;;;;13.68;47.54;99057.27;1814443;76;21529;-76
2021/04/07 06:28:58;;;;;;;49.23;29.23;;;;;;;13.70;47.54;99061.38;1796440;76;21552;-74
2021/04/07 06:31:32;;;;;;;27.60;15.55;;;;;;;13.75;47.40;99057.23;1846000;76;21116;-79
2021/04/07 06:34:14;;;;;;;22.85;13.40;;;;;;;13.80;47.15;99056.06;1815845;76;21108;-77
2021/04/07 06:36:45;;;;;;;18.35;12.58;;;;;;;13.85;47.11;99050.86;1847416;76;21113;-77
2021/04/07 06:39:13;;;;;;;37.63;16.15;;;;;;;13.87;46.91;99050.15;1846745;76;21151;-77
2021/04/07 06:41:42;;;;;;;23.20;12.45;;;;;;;13.90;46.88;99049.73;1850280;76;21111;-76
2021/04/07 06:44:12;;;;;;;19.42;11.25;;;;;;;13.96;46.90;99047.52;1849740;76;21628;-76
2021/04/07 06:46:41;;;;;;;22.02;10.50;;;;;;;14.00;46.66;99047.39;1852574;76;21073;-76
2021/04/07 06:49:09;;;;;;;15.75;9.90;;;;;;;14.04;46.34;99037.85;1851805;76;21140;-77
2021/04/07 06:51:37;;;;;;;13.55;9.88;;;;;;;14.08;46.44;99032.34;1840056;76;21135;-78
2021/04/07 06:54:05;;;;;;;20.23;10.70;;;;;;;14.16;46.14;99030.72;1848739;76;21125;-76
2021/04/07 06:56:35;;;;;;;18.48;10.25;;;;;;;14.22;45.94;99037.13;1854419;76;21132;-77
2021/04/07 06:59:06;;;;;;;19.67;10.53;;;;;;;14.28;45.81;99040.82;1820473;76;21085;-77
2021/04/07 07:01:33;;;;;;;19.10;12.58;;;;;;;14.32;45.86;99044.21;1850617;76;21140;-76
2021/04/07 07:04:02;;;;;;;20.55;13.50;;;;;;;14.36;45.63;99040.05;1846165;76;21324;-77
2021/04/07 07:06:30;;;;;;;21.00;12.13;;;;;;;14.39;45.21;99039.59;1844639;76;21100;-79
2021/04/07 07:08:59;;;;;;;23.95;15.25;;;;;;;14.36;45.07;99042.73;1852187;76;21121;-77
2021/04/07 07:11:27;;;;;;;32.90;21.33;;;;;;;14.36;45.33;99050.00;1840843;76;21088;-76
2021/04/07 07:13:58;;;;;;;40.70;24.77;;;;;;;14.41;45.39;99048.82;1815779;76;21133;-77
2021/04/07 07:16:26;;;;;;;31.80;19.23;;;;;;;14.54;45.28;99045.25;1791067;76;21568;-78
2021/04/07 07:18:56;;;;;;;24.87;15.85;;;;;;;14.60;44.66;99043.84;1846494;76;21144;-76
2021/04/07 07:21:25;;;;;;;16.62;12.25;;;;;;;14.64;45.01;99049.63;1855327;76;21114;-77
2021/04/07 07:23:53;;;;;;;18.15;11.70;;;;;;;14.76;44.86;99052.41;1861160;76;21126;-78
2021/04/07 07:26:21;;;;;;;19.50;12.93;;;;;;;14.78;44.31;99047.64;1861997;76;21693;-78
2021/04/07 07:28:54;;;;;;;25.55;14.85;;;;;;;14.73;44.48;99046.13;1860777;76;21109;-78
2021/04/07 07:31:29;;;;;;;26.93;15.48;;;;;;;14.75;44.46;99042.69;1855346;76;21717;-78
2021/04/07 07:34:06;;;;;;;30.25;19.73;;;;;;;14.79;44.38;99041.20;1856547;75;21604;-78
2021/04/07 07:36:39;;;;;;;33.75;22.35;;;;;;;14.81;44.33;99038.60;1859944;76;21105;-79
2021/04/07 07:39:08;;;;;;;26.82;17.52;;;;;;;14.86;44.40;99027.98;1795749;76;21595;-77
2021/04/07 07:41:36;;;;;;;25.45;17.35;;;;;;;14.87;44.00;99031.50;1851090;76;21136;-77
2021/04/07 07:44:08;;;;;;;23.57;14.68;;;;;;;14.85;44.01;99034.92;1853312;76;21117;-77
2021/04/07 07:46:39;;;;;;;22.02;13.70;;;;;;;14.88;44.26;99033.14;1855802;76;21126;-77
2021/04/07 07:49:15;;;;;;;19.42;13.45;;;;;;;14.98;44.12;99028.88;1851598;76;21093;-76
2021/04/07 07:51:47;;;;;;;17.20;12.68;;;;;;;15.10;44.06;99031.69;1855983;76;21128;-75
2021/04/07 07:54:16;;;;;;;24.20;14.83;;;;;;;15.22;43.76;99029.09;1856157;76;21126;-76
2021/04/07 07:56:43;;;;;;;25.02;14.40;;;;;;;15.34;43.75;99026.47;1853726;76;21135;-76
2021/04/07 07:59:15;;;;;;;20.00;14.07;;;;;;;15.51;43.56;99026.70;1859249;76;21147;-77
2021/04/07 08:01:45;;;;;;;19.90;14.15;;;;;;;15.68;43.41;99039.41;1859267;76;21551;-77
2021/04/07 08:04:13;;;;;;;19.57;13.93;;;;;;;15.84;42.92;99027.67;1858643;76;21136;-77
2021/04/07 08:06:43;;;;;;;25.50;14.20;;;;;;;15.94;42.70;99022.05;1803517;78;21673;-77
2021/04/07 08:09:12;;;;;;;21.82;11.97;;;;;;;16.03;42.68;99017.13;1792462;78;21112;-77
2021/04/07 08:11:45;;;;;;;15.55;11.65;;;;;;;16.10;42.47;99014.36;1806980;78;21076;-75
2021/04/07 08:14:17;;;;;;;19.23;12.82;;;;;;;16.15;42.26;99015.84;1803745;78;21144;-77
2021/04/07 08:16:49;;;;;;;18.50;12.73;;;;;;;16.17;42.12;99027.26;1801120;78;21130;-76
2021/04/07 08:19:22;;;;;;;50.25;29.30;;;;;;;16.15;42.14;99022.59;1796980;78;21217;-79
2021/04/07 08:22:02;;;;;;;63.60;31.82;;;;;;;16.08;42.14;99020.00;1788987;78;21138;-77
2021/04/07 08:24:32;;;;;;;57.27;31.42;;;;;;;15.92;42.30;99016.05;1793160;78;21161;-77
2021/04/07 08:27:03;;;;;;;62.35;30.57;;;;;;;15.78;42.73;99017.80;1787180;78;21664;-77
2021/04/07 08:33:05;;;;;;;62.83;31.25;;;;;;;15.49;42.98;99017.50;1801439;77;22738;-78
2021/04/07 08:35:38;;;;;;;60.65;31.55;;;;;;;15.37;43.17;99024.68;1778440;79;21153;-78
2021/04/07 08:38:06;;;;;;;61.50;31.45;;;;;;;15.26;43.48;99025.41;1776039;79;21179;-80
2021/04/07 08:40:46;;;;;;;62.80;33.18;;;;;;;15.18;43.76;99019.27;1800917;77;21208;-78
2021/04/07 08:43:18;;;;;;;52.60;29.60;;;;;;;15.12;43.78;99018.80;1806942;77;21125;-76
2021/04/07 08:45:49;;;;;;;56.50;29.60;;;;;;;15.06;43.83;99012.13;1803854;77;21926;-77
2021/04/07 08:48:42;;;;;;;50.63;26.23;;;;;;;15.01;44.08;99023.59;1775879;78;21163;-80
2021/04/07 08:51:19;;;;;;;49.58;26.02;;;;;;;14.99;44.19;99020.30;1817304;76;21152;-77
2021/04/07 08:53:57;;;;;;;61.50;29.87;;;;;;;15.00;44.17;99026.52;1834636;76;21105;-79
2021/04/07 08:56:31;;;;;;;51.70;28.27;;;;;;;14.97;44.21;99016.98;1840013;76;20981;-77
2021/04/07 08:59:22;;;;;;;61.20;28.50;;;;;;;14.94;44.37;99010.18;1813209;76;21119;-78
2021/04/07 09:02:07;;;;;;;61.50;29.70;;;;;;;14.94;44.38;99008.83;1841448;76;21124;-81
2021/04/07 09:04:38;;;;;;;57.15;30.32;;;;;;;14.92;44.60;99000.13;1819231;76;21099;-77
2021/04/07 09:07:09;;;;;;;58.05;30.48;;;;;;;14.92;44.80;99000.65;1838677;76;21137;-79
2021/04/07 09:09:40;;;;;;;47.13;27.10;;;;;;;14.91;44.81;99005.75;1819490;76;21105;-77
2021/04/07 09:12:15;;;;;;;49.70;25.88;;;;;;;14.88;44.80;99004.84;1806191;76;21120;-78
2021/04/07 09:14:50;;;;;;;41.53;22.48;;;;;;;14.86;44.71;98996.16;1809890;76;21069;-81
2021/04/07 09:17:20;;;;;;;38.88;21.77;;;;;;;14.84;44.73;98993.66;1835882;76;21159;-79
2021/04/07 09:19:57;;;;;;;38.35;20.55;;;;;;;14.82;44.81;98984.16;1841380;76;21029;-76
2021/04/07 09:22:26;;;;;;;31.42;17.80;;;;;;;14.79;44.84;98985.95;1841742;76;21132;-79
2021/04/07 09:24:56;;;;;;;19.17;13.38;;;;;;;14.76;44.94;98978.29;1838849;76;21058;-79
2021/04/07 09:27:25;;;;;;;16.57;10.85;;;;;;;14.76;44.99;98979.64;1840482;76;21890;-83
2021/04/07 09:30:05;;;;;;;16.17;10.38;;;;;;;14.76;44.83;98976.45;1821820;76;21141;-76
2021/04/07 09:32:33;;;;;;;14.13;9.80;;;;;;;14.76;44.94;98971.55;1834320;76;21145;-79
2021/04/07 09:35:03;;;;;;;13.38;9.40;;;;;;;14.76;45.10;98960.28;1839136;76;21129;-79
2021/04/07 09:37:41;;;;;;;13.10;8.70;;;;;;;14.80;45.14;98961.98;1814079;76;21199;-77
2021/04/07 09:40:22;;;;;;;11.55;8.93;;;;;;;14.84;45.06;98965.36;1808539;76;21819;-77
2021/04/07 09:42:57;;;;;;;15.20;9.60;;;;;;;14.89;45.17;98964.69;1807101;76;21125;-81
2021/04/07 09:45:27;;;;;;;14.20;9.23;;;;;;;14.91;45.17;98965.31;1810547;77;21168;-78
2021/04/07 09:47:56;;;;;;;14.05;9.00;;;;;;;14.95;45.17;98965.98;1832335;76;21132;-78
2021/04/07 09:50:32;;;;;;;14.00;8.48;;;;;;;15.02;45.12;98963.20;1835343;76;21111;-78
2021/04/07 09:53:01;;;;;;;12.30;8.68;;;;;;;15.09;45.05;98965.85;1806492;76;21120;-77
2021/04/07 09:55:30;;;;;;;13.88;7.87;;;;;;;15.13;44.90;98963.83;1804124;76;21129;-77
2021/04/07 09:58:00;;;;;;;11.00;7.92;;;;;;;15.16;44.73;98966.06;1837286;76;21929;-78
2021/04/07 10:00:33;;;;;;;13.35;8.15;;;;;;;15.20;44.80;98961.88;1807806;76;21109;-80
2021/04/07 10:03:02;;;;;;;11.78;8.45;;;;;;;15.21;44.83;98964.89;1831234;76;21112;-81
2021/04/07 10:05:35;;;;;;;12.50;8.55;;;;;;;15.22;44.71;98965.19;1767661;78;21110;-77
2021/04/07 10:08:23;;;;;;;11.80;8.83;;;;;;;15.22;44.78;98962.48;1778427;79;22197;-79
2021/04/07 10:10:54;;;;;;;14.30;9.28;;;;;;;15.18;44.81;98958.59;1749702;79;21125;-76
2021/04/07 10:13:22;;;;;;;16.75;10.13;;;;;;;15.20;44.81;98956.48;1774175;79;21157;-77
2021/04/07 10:15:58;;;;;;;13.48;8.95;;;;;;;15.24;44.82;98952.81;1748291;79;21117;-80
2021/04/07 10:18:29;;;;;;;12.78;8.98;;;;;;;15.27;44.71;98952.37;1774648;79;21157;-79
2021/04/07 10:20:58;;;;;;;14.20;8.33;;;;;;;15.31;44.79;98954.09;1775630;79;21152;-77
2021/04/07 10:23:26;;;;;;;12.82;9.40;;;;;;;15.36;44.84;98945.62;1741330;79;21580;-79
2021/04/07 10:25:55;;;;;;;13.68;8.78;;;;;;;15.46;44.81;98946.43;1767976;79;21122;-81
2021/04/07 10:28:23;;;;;;;11.53;8.20;;;;;;;15.52;44.50;98954.95;1777570;79;21079;-79
2021/04/07 10:30:55;;;;;;;14.80;8.38;;;;;;;15.57;44.27;98956.98;1773189;79;21105;-78
2021/04/07 10:33:27;;;;;;;11.65;8.08;;;;;;;15.64;44.08;98961.80;1773318;79;21154;-76
2021/04/07 10:36:00;;;;;;;9.93;7.92;;;;;;;15.66;44.05;98962.39;1771299;79;21173;-78
2021/04/07 10:38:32;;;;;;;13.25;8.35;;;;;;;15.67;44.04;98953.27;1748262;79;21659;-79
2021/04/07 10:41:04;;;;;;;14.25;8.60;;;;;;;15.66;43.96;98961.86;1770177;79;22352;-80
2021/04/07 10:43:39;;;;;;;9.65;8.00;;;;;;;15.64;43.92;98963.97;1743987;79;21687;-77
2021/04/07 10:46:08;;;;;;;15.30;9.00;;;;;;;15.64;43.90;98969.38;1772541;79;21535;-79
2021/04/07 10:48:45;;;;;;;15.85;8.75;;;;;;;15.67;43.78;98964.06;1771290;79;21173;-77
2021/04/07 10:51:26;;;;;;;13.95;8.95;;;;;;;15.69;43.66;98970.86;1726309;80;21644;-77
2021/04/07 10:53:59;;;;;;;14.15;9.03;;;;;;;15.75;43.53;98971.82;1773839;79;21197;-80
2021/04/07 10:56:31;;;;;;;16.48;9.40;;;;;;;15.81;43.46;98974.98;1770239;79;21126;-80
2021/04/07 10:59:01;;;;;;;14.20;9.88;;;;;;;15.84;43.37;98970.98;1769630;79;21129;-79
2021/04/07 11:01:34;;;;;;;14.60;9.63;;;;;;;15.89;43.20;98978.69;1772960;79;21222;-78
2021/04/07 11:04:13;;;;;;;16.23;10.68;;;;;;;15.93;43.12;98986.63;1772195;79;21597;-76
2021/04/07 11:06:52;;;;;;;18.95;10.63;;;;;;;15.92;43.00;98988.22;1761589;79;21120;-78
2021/04/07 11:09:38;;;;;;;;;;;;;;;;;;;;;
2021/04/07 11:12:13;;;;;;;21.35;13.50;;;;;;;15.91;43.54;98986.58;1883824;73;23300;-81
2021/04/07 11:14:52;;;;;;;23.95;13.80;;;;;;;15.79;43.63;98989.74;1828771;75;21510;-78
2021/04/07 11:17:20;;;;;;;30.20;15.00;;;;;;;15.64;43.42;98990.97;1853773;75;22548;-77
2021/04/07 11:19:50;;;;;;;30.12;14.18;;;;;;;15.45;43.61;98992.83;1858055;75;21221;-75
2021/04/07 11:22:19;;;;;;;19.45;12.23;;;;;;;15.34;43.82;98999.48;1819328;75;21221;-78
2021/04/07 11:24:51;;;;;;;20.85;11.53;;;;;;;15.26;43.96;98998.43;1861282;75;21185;-75
2021/04/07 11:27:18;;;;;;;16.05;10.80;;;;;;;15.16;43.80;99011.09;1828591;76;20969;-76
2021/04/07 11:29:48;;;;;;;22.48;10.88;;;;;;;15.06;44.04;99006.22;1856400;75;21132;-78
2021/04/07 11:32:21;;;;;;;15.18;8.03;;;;;;;15.02;43.92;98996.92;1861440;75;21141;-77
2021/04/07 11:35:00;;;;;;;11.33;6.85;;;;;;;14.96;43.80;98998.64;1841558;75;21116;-78
2021/04/07 11:40:41;;;;;;;8.55;5.08;;;;;;;14.83;43.84;99001.98;1860094;75;22288;-76
2021/04/07 11:43:32;;;;;;;11.33;5.42;;;;;;;14.76;43.79;98996.66;1857324;75;21251;-75